Flight Track Log - Related Links

Times and Time Zones

All times are in EDT time to prevent confusion due to time zone crossing. See the JBU56 flight status page for this flight to view local times or setup timezone preferences in your user account.

Time Position Orientation Groundspeed Altitude Reporting Facility
EDT Latitude Longitude Course Direction KTS MPH feet Rate Location/Type
Fri 09:11:56 AM 38.9833 -77.5167 90° East 198 228 2,600  Level Potomac TRACON
Fri 09:12:51 AM 39.0500 -77.5333 349° North 242 278 5,000 2,974 Climbing Potomac TRACON
Fri 09:13:00 AM 39.0035 -77.0976 77° East  Level FlightAware Approximate
Fri 09:13:51 AM 39.1167 -77.5333 360° North 284 327 8,300  Level Potomac TRACON
Fri 09:14:00 AM 39.0261 -76.9731 77° East  Level FlightAware Approximate
Fri 09:14:51 AM 39.1500 -77.4333 67° East 300 345 10,000  Level Potomac TRACON
Fri 09:15:00 AM 39.0476 -76.8481 78° East  Level FlightAware Approximate
Fri 09:15:51 AM 39.1500 -77.3167 90° East 351 404 10,000  Level Potomac TRACON
Fri 09:16:00 AM 39.0667 -76.7227 90° East  Level FlightAware Approximate
Fri 09:16:51 AM 39.1167 -77.2000 110° East 353 406 12,300  Level Potomac TRACON
Fri 09:17:00 AM 39.0833 -76.6010 90° East  Level FlightAware Approximate
Fri 09:17:52 AM 39.0833 -77.0667 108° East 371 427 14,800  Level Potomac TRACON
Fri 09:20:06 AM 39.0658 -76.7758 94° East 384 442 19,000 1,938 Climbing Washington Center
Fri 09:21:07 AM 39.0881 -76.6344 79° East 390 449 21,100 1,983 Climbing Washington Center
Fri 09:22:07 AM 39.1100 -76.4878 79° East 396 456 23,000 942 Climbing Washington Center
Fri 09:23:08 AM 39.1611 -76.3544 64° Northeast 411 473 23,000 198 Level Washington Center
Fri 09:24:08 AM 39.2283 -76.2372 53° Northeast 398 458 23,400 1,119 Climbing Washington Center
Fri 09:25:06 AM 39.3019 -76.1172 52° Northeast 407 468 25,200 1,627 Climbing Washington Center
Fri 09:26:06 AM 39.3711 -75.9942 54° Northeast 407 468 26,600 1,339 Climbing Washington Center
Fri 09:27:07 AM 39.4425 -75.8711 53° Northeast 418 481 27,900 1,289 Climbing Washington Center
Fri 09:28:07 AM 39.5156 -75.7394 54° Northeast 431 496 29,200 1,388 Climbing Washington Center
Fri 09:29:08 AM 39.5886 -75.6103 54° Northeast 438 504 30,700 893 Climbing Washington Center
Fri 09:30:08 AM 39.6594 -75.4811 55° Northeast 438 504 31,000 151 Climbing Washington Center
Fri 09:31:07 AM 39.7383 -75.3458 53° Northeast 451 519 31,000  Level Washington Center
Fri 09:31:44 AM 39.7839 -75.2661 53° Northeast 450 518 31,000  Level New York Center
Fri 09:32:42 AM 39.8581 -75.1247 56° Northeast 461 531 31,000  Level New York Center
Fri 09:33:42 AM 39.9319 -74.9886 55° Northeast 466 536 31,000  Level New York Center
Fri 09:34:43 AM 40.0158 -74.8528 51° Northeast 471 542 31,000  Level New York Center
Fri 09:35:43 AM 40.0953 -74.7217 52° Northeast 466 536 31,000  Level New York Center
Fri 09:36:44 AM 40.1769 -74.5850 52° Northeast 471 542 31,000  Level New York Center
Fri 09:37:44 AM 40.2606 -74.4456 52° Northeast 477 549 31,000  Level New York Center
Fri 09:38:42 AM 40.3439 -74.3083 51° Northeast 477 549 31,000  Level New York Center
Fri 09:40:22 AM 40.4839 -74.0717 52° Northeast 479 551 31,000 -413 Level Boston Center
Fri 09:41:22 AM 40.5625 -73.9481 50° Northeast 485 558 29,900 -1,400 Descending Boston Center
Fri 09:42:22 AM 40.6436 -73.8103 52° Northeast 485 558 28,200 -1,750 Descending Boston Center
Fri 09:43:22 AM 40.7286 -73.6561 54° Northeast 479 551 26,400 -1,650 Descending Boston Center
Fri 09:44:22 AM 40.8072 -73.5314 50° Northeast 470 541 24,900 -1,200 Descending Boston Center
Fri 09:45:22 AM 40.8811 -73.4008 53° Northeast 447 514 24,000 -450 Descending Boston Center
Fri 09:46:22 AM 40.9464 -73.3167 44° Northeast 433 498 24,000 -400 Level Boston Center
Fri 09:47:22 AM 41.0311 -73.1583 55° Northeast 427 491 23,200 -500 Descending Boston Center
Fri 09:48:22 AM 41.0942 -73.0267 58° Northeast 427 491 23,000 -100 Descending Boston Center
Fri 09:49:22 AM 41.1594 -72.8894 58° Northeast 427 491 23,000  Level Boston Center
Fri 09:50:22 AM 41.2203 -72.7519 60° Northeast 432 497 23,000  Level Boston Center
Fri 09:51:22 AM 41.2750 -72.6086 63° Northeast 441 507 23,000  Level Boston Center
Fri 09:52:22 AM 41.3272 -72.4706 63° Northeast 446 513 23,000  Level Boston Center
Fri 09:53:22 AM 41.3833 -72.3239 63° Northeast 446 513 23,000 -50 Level Boston Center
Fri 09:54:22 AM 41.4456 -72.1714 61° Northeast 440 506 22,900 -1,300 Descending Boston Center
Fri 09:55:22 AM 41.4972 -72.0244 65° Northeast 434 499 20,400 -2,682 Descending Boston Center
Fri 09:56:34 AM 41.5631 -71.8603 62° Northeast 423 487 17,000 -2,000 Descending Boston Center
Fri 09:57:34 AM 41.6022 -71.7544 64° Northeast 379 436 16,000 -1,650 Descending Boston Center
Fri 09:58:34 AM 41.6472 -71.6372 63° Northeast 330 380 13,700 -2,000 Descending Boston Center
Fri 09:59:34 AM 41.6819 -71.5450 63° Northeast 314 361 12,000 -1,350 Descending Boston Center
Fri 10:00:34 AM 41.7208 -71.4389 64° Northeast 295 339 11,000 -500 Descending Boston Center
Fri 10:01:34 AM 41.7572 -71.3408 64° Northeast 287 330 11,000  Level Boston Center
Fri 10:02:46 AM 41.8025 -71.2733 48° Northeast 267 307 11,000 -455 Level Boston Center
Fri 10:03:46 AM 41.8833 -71.2356 19° North 248 285 10,000 -1,150 Descending Boston Center
Fri 10:04:46 AM 41.9414 -71.2092 19° North 248 285 8,700 -1,200 Descending Boston Center
Fri 10:05:46 AM 42.0036 -71.1772 21° North 224 258 7,600 -1,200 Descending Boston Center
Fri 10:06:46 AM 42.0556 -71.1539 18° North 218 251 6,300 -1,250 Descending Boston Center
Fri 10:07:46 AM 42.1094 -71.1275 20° North 200 230 5,100 -1,161 Descending Boston Center
Fri 10:08:19 AM 42.1333 -71.1167 19° North 179 206 4,500 -1,029 Descending KA90
Fri 10:09:31 AM 42.2000 -71.0833 20° North 177 204 3,300 -950 Descending KA90
Fri 10:10:19 AM 42.2333 -71.0667 20° North 172 198 2,600 -833 Descending KA90
Fri 10:11:19 AM 42.2667 -71.0500 20° North 151 174 1,800 -750 Descending KA90
Fri 10:12:19 AM 42.3000 -71.0333 20° North 113 130 1,100 -619 Descending KA90
Fri 10:13:25 AM 42.3333 -71.0167 20° North 116 133 500 -545 Descending KA90
Fri 10:15:00 AM 42.3500 -71.0000 North  Level FlightAware Approximate

Login

Don't have an account? Register now (free) for customized features, flight alerts, and more!